sensor_id;sensor_type;location;lat;lon;timestamp;P1;durP1;ratioP1;P2;durP2;ratioP2
74753;SDS011;63271;53.340;-6.260;2023-03-15T07:03:20;4.00;;;1.25;;
74753;SDS011;63271;53.340;-6.260;2023-03-15T07:05:47;4.80;;;0.70;;
74753;SDS011;63271;53.340;-6.260;2023-03-15T07:08:16;9.63;;;1.13;;
74753;SDS011;63271;53.340;-6.260;2023-03-15T07:10:45;6.05;;;1.15;;
74753;SDS011;63271;53.340;-6.260;2023-03-15T07:13:10;7.40;;;1.23;;
74753;SDS011;63271;53.340;-6.260;2023-03-15T07:15:37;6.38;;;0.70;;
74753;SDS011;63271;53.340;-6.260;2023-03-15T07:18:05;6.53;;;0.80;;
74753;SDS011;63271;53.340;-6.260;2023-03-15T07:20:31;6.50;;;1.27;;
74753;SDS011;63271;53.340;-6.260;2023-03-15T07:22:56;7.95;;;1.00;;
74753;SDS011;63271;53.340;-6.260;2023-03-15T07:25:22;7.63;;;0.88;;
74753;SDS011;63271;53.340;-6.260;2023-03-15T07:27:49;10.13;;;1.35;;
74753;SDS011;63271;53.340;-6.260;2023-03-15T07:30:20;9.57;;;2.03;;
74753;SDS011;63271;53.340;-6.260;2023-03-15T07:32:46;5.63;;;1.00;;
74753;SDS011;63271;53.340;-6.260;2023-03-15T07:35:13;13.30;;;1.25;;
74753;SDS011;63271;53.340;-6.260;2023-03-15T07:37:40;12.02;;;1.27;;
74753;SDS011;63271;53.340;-6.260;2023-03-15T07:40:06;7.28;;;1.60;;
74753;SDS011;63271;53.340;-6.260;2023-03-15T07:42:39;14.60;;;1.73;;
74753;SDS011;63271;53.340;-6.260;2023-03-15T07:45:05;4.93;;;1.13;;
74753;SDS011;63271;53.340;-6.260;2023-03-15T07:47:37;9.60;;;1.23;;
74753;SDS011;63271;53.340;-6.260;2023-03-15T07:50:03;11.15;;;1.20;;
74753;SDS011;63271;53.340;-6.260;2023-03-15T07:52:29;5.07;;;1.27;;
74753;SDS011;63271;53.340;-6.260;2023-03-15T07:54:55;5.68;;;1.95;;
74753;SDS011;63271;53.340;-6.260;2023-03-15T07:57:20;10.38;;;1.98;;
74753;SDS011;63271;53.340;-6.260;2023-03-15T07:59:46;8.82;;;1.38;;
74753;SDS011;63271;53.340;-6.260;2023-03-15T08:02:13;13.25;;;1.40;;
74753;SDS011;63271;53.340;-6.260;2023-03-15T08:04:39;4.85;;;1.17;;
74753;SDS011;63271;53.340;-6.260;2023-03-15T08:07:05;7.18;;;1.38;;
74753;SDS011;63271;53.340;-6.260;2023-03-15T08:09:32;7.47;;;1.25;;
74753;SDS011;63271;53.340;-6.260;2023-03-15T08:11:59;8.43;;;1.35;;
74753;SDS011;63271;53.340;-6.260;2023-03-15T08:14:27;7.43;;;1.98;;
74753;SDS011;63271;53.340;-6.260;2023-03-15T08:16:53;7.13;;;1.77;;
74753;SDS011;63271;53.340;-6.260;2023-03-15T08:19:18;16.40;;;1.90;;
74753;SDS011;63271;53.340;-6.260;2023-03-15T08:21:46;8.07;;;1.60;;
74753;SDS011;63271;53.340;-6.260;2023-03-15T08:24:12;5.07;;;2.35;;
74753;SDS011;63271;53.340;-6.260;2023-03-15T08:26:37;13.02;;;3.97;;
74753;SDS011;63271;53.340;-6.260;2023-03-15T08:29:02;13.73;;;2.67;;
74753;SDS011;63271;53.340;-6.260;2023-03-15T08:31:28;12.55;;;2.15;;
74753;SDS011;63271;53.340;-6.260;2023-03-15T08:33:57;16.05;;;2.67;;
74753;SDS011;63271;53.340;-6.260;2023-03-15T08:36:25;11.50;;;2.85;;
74753;SDS011;63271;53.340;-6.260;2023-03-15T08:38:52;6.03;;;2.20;;
74753;SDS011;63271;53.340;-6.260;2023-03-15T08:41:18;12.80;;;2.95;;
74753;SDS011;63271;53.340;-6.260;2023-03-15T08:43:43;8.35;;;1.83;;
74753;SDS011;63271;53.340;-6.260;2023-03-15T08:46:09;9.18;;;1.88;;
74753;SDS011;63271;53.340;-6.260;2023-03-15T08:48:37;5.10;;;2.47;;
74753;SDS011;63271;53.340;-6.260;2023-03-15T08:51:03;16.13;;;2.88;;
74753;SDS011;63271;53.340;-6.260;2023-03-15T08:53:29;14.65;;;3.05;;
74753;SDS011;63271;53.340;-6.260;2023-03-15T08:55:55;9.82;;;3.00;;
74753;SDS011;63271;53.340;-6.260;2023-03-15T08:58:23;9.32;;;2.75;;
74753;SDS011;63271;53.340;-6.260;2023-03-15T09:00:49;9.75;;;2.45;;
74753;SDS011;63271;53.340;-6.260;2023-03-15T09:03:15;10.73;;;2.58;;
74753;SDS011;63271;53.340;-6.260;2023-03-15T09:05:41;10.02;;;1.88;;
74753;SDS011;63271;53.340;-6.260;2023-03-15T09:08:06;11.27;;;2.25;;
74753;SDS011;63271;53.340;-6.260;2023-03-15T09:10:32;7.40;;;1.50;;
74753;SDS011;63271;53.340;-6.260;2023-03-15T09:12:58;7.90;;;2.08;;
74753;SDS011;63271;53.340;-6.260;2023-03-15T09:15:24;9.88;;;2.30;;
74753;SDS011;63271;53.340;-6.260;2023-03-15T09:17:51;7.88;;;1.83;;
74753;SDS011;63271;53.340;-6.260;2023-03-15T09:20:17;14.15;;;2.13;;
74753;SDS011;63271;53.340;-6.260;2023-03-15T09:22:51;6.97;;;1.88;;
74753;SDS011;63271;53.340;-6.260;2023-03-15T09:25:20;5.80;;;1.83;;
74753;SDS011;63271;53.340;-6.260;2023-03-15T09:27:49;4.93;;;2.83;;
74753;SDS011;63271;53.340;-6.260;2023-03-15T09:30:17;5.40;;;1.98;;
74753;SDS011;63271;53.340;-6.260;2023-03-15T09:32:45;5.72;;;1.75;;
74753;SDS011;63271;53.340;-6.260;2023-03-15T09:35:15;7.72;;;1.70;;
74753;SDS011;63271;53.340;-6.260;2023-03-15T09:37:42;5.03;;;1.27;;
74753;SDS011;63271;53.340;-6.260;2023-03-15T09:48:26;9.60;;;4.40;;
74753;SDS011;63271;53.340;-6.260;2023-03-15T09:51:06;1.92;;;0.73;;
74753;SDS011;63271;53.340;-6.260;2023-03-15T09:56:24;5.47;;;1.48;;
74753;SDS011;63271;53.340;-6.260;2023-03-15T09:58:55;4.70;;;1.15;;
74753;SDS011;63271;53.340;-6.260;2023-03-15T10:01:56;8.68;;;1.67;;
74753;SDS011;63271;53.340;-6.260;2023-03-15T10:04:27;6.90;;;1.48;;
74753;SDS011;63271;53.340;-6.260;2023-03-15T10:06:55;4.75;;;1.30;;
74753;SDS011;63271;53.340;-6.260;2023-03-15T10:09:23;7.47;;;1.42;;
74753;SDS011;63271;53.340;-6.260;2023-03-15T10:17:12;5.25;;;1.42;;
74753;SDS011;63271;53.340;-6.260;2023-03-15T10:27:12;7.28;;;1.60;;
74753;SDS011;63271;53.340;-6.260;2023-03-15T10:29:40;4.45;;;1.45;;
74753;SDS011;63271;53.340;-6.260;2023-03-15T10:32:10;5.60;;;1.48;;
74753;SDS011;63271;53.340;-6.260;2023-03-15T10:34:52;4.18;;;1.55;;
74753;SDS011;63271;53.340;-6.260;2023-03-15T10:37:23;3.63;;;1.30;;
74753;SDS011;63271;53.340;-6.260;2023-03-15T10:39:53;6.57;;;1.40;;
74753;SDS011;63271;53.340;-6.260;2023-03-15T10:42:30;3.83;;;1.27;;
74753;SDS011;63271;53.340;-6.260;2023-03-15T10:44:58;3.53;;;1.10;;
74753;SDS011;63271;53.340;-6.260;2023-03-15T10:47:27;6.88;;;1.00;;
74753;SDS011;63271;53.340;-6.260;2023-03-15T10:49:56;3.30;;;0.88;;
74753;SDS011;63271;53.340;-6.260;2023-03-15T10:55:27;3.72;;;0.90;;
74753;SDS011;63271;53.340;-6.260;2023-03-15T10:58:20;6.70;;;1.77;;
74753;SDS011;63271;53.340;-6.260;2023-03-15T11:01:00;4.03;;;1.77;;
74753;SDS011;63271;53.340;-6.260;2023-03-15T11:03:31;2.58;;;1.17;;
74753;SDS011;63271;53.340;-6.260;2023-03-15T11:06:00;4.22;;;1.15;;
74753;SDS011;63271;53.340;-6.260;2023-03-15T11:11:01;4.20;;;1.60;;
74753;SDS011;63271;53.340;-6.260;2023-03-15T11:13:31;7.00;;;1.60;;
74753;SDS011;63271;53.340;-6.260;2023-03-15T11:18:31;8.75;;;1.67;;
74753;SDS011;63271;53.340;-6.260;2023-03-15T11:20:59;6.28;;;1.17;;
74753;SDS011;63271;53.340;-6.260;2023-03-15T11:26:00;3.22;;;1.00;;
74753;SDS011;63271;53.340;-6.260;2023-03-15T11:28:27;3.10;;;0.80;;
74753;SDS011;63271;53.340;-6.260;2023-03-15T11:30:54;5.50;;;0.82;;
74753;SDS011;63271;53.340;-6.260;2023-03-15T11:33:28;6.45;;;0.88;;
74753;SDS011;63271;53.340;-6.260;2023-03-15T11:35:58;3.55;;;0.77;;
74753;SDS011;63271;53.340;-6.260;2023-03-15T11:38:34;1.40;;;0.60;;
74753;SDS011;63271;53.340;-6.260;2023-03-15T11:41:08;4.00;;;0.88;;
74753;SDS011;63271;53.340;-6.260;2023-03-15T11:46:17;15.07;;;3.40;;
74753;SDS011;63271;53.340;-6.260;2023-03-15T11:48:50;5.68;;;1.25;;
74753;SDS011;63271;53.340;-6.260;2023-03-15T11:51:25;7.03;;;0.88;;
74753;SDS011;63271;53.340;-6.260;2023-03-15T11:56:27;5.60;;;1.10;;
74753;SDS011;63271;53.340;-6.260;2023-03-15T11:59:25;10.88;;;1.20;;
74753;SDS011;63271;53.340;-6.260;2023-03-15T12:07:02;10.10;;;1.67;;
74753;SDS011;63271;53.340;-6.260;2023-03-15T12:09:37;10.93;;;3.63;;
74753;SDS011;63271;53.340;-6.260;2023-03-15T12:12:37;9.05;;;1.30;;
74753;SDS011;63271;53.340;-6.260;2023-03-15T12:17:49;3.88;;;0.93;;
74753;SDS011;63271;53.340;-6.260;2023-03-15T12:22:50;5.40;;;1.30;;
74753;SDS011;63271;53.340;-6.260;2023-03-15T12:25:21;7.45;;;2.00;;
74753;SDS011;63271;53.340;-6.260;2023-03-15T12:27:55;2.90;;;0.98;;
74753;SDS011;63271;53.340;-6.260;2023-03-15T12:30:23;5.13;;;1.08;;
74753;SDS011;63271;53.340;-6.260;2023-03-15T12:32:55;3.15;;;1.30;;
74753;SDS011;63271;53.340;-6.260;2023-03-15T12:35:36;10.65;;;1.75;;
74753;SDS011;63271;53.340;-6.260;2023-03-15T12:38:08;4.88;;;1.13;;
74753;SDS011;63271;53.340;-6.260;2023-03-15T12:49:10;4.40;;;0.63;;
74753;SDS011;63271;53.340;-6.260;2023-03-15T12:51:40;5.93;;;1.45;;
74753;SDS011;63271;53.340;-6.260;2023-03-15T12:54:20;3.42;;;0.77;;
74753;SDS011;63271;53.340;-6.260;2023-03-15T12:56:56;2.17;;;0.50;;
74753;SDS011;63271;53.340;-6.260;2023-03-15T12:59:34;11.27;;;1.02;;
74753;SDS011;63271;53.340;-6.260;2023-03-15T13:02:14;10.85;;;1.42;;
74753;SDS011;63271;53.340;-6.260;2023-03-15T13:04:59;4.45;;;0.77;;
74753;SDS011;63271;53.340;-6.260;2023-03-15T13:08:03;3.90;;;1.23;;
74753;SDS011;63271;53.340;-6.260;2023-03-15T13:27:44;2.80;;;0.73;;
74753;SDS011;63271;53.340;-6.260;2023-03-15T13:35:33;1.77;;;0.43;;
74753;SDS011;63271;53.340;-6.260;2023-03-15T13:38:08;5.65;;;0.60;;
74753;SDS011;63271;53.340;-6.260;2023-03-15T13:40:54;5.30;;;0.80;;
74753;SDS011;63271;53.340;-6.260;2023-03-15T13:43:31;7.45;;;1.25;;
74753;SDS011;63271;53.340;-6.260;2023-03-15T13:46:01;7.65;;;0.90;;
74753;SDS011;63271;53.340;-6.260;2023-03-15T13:48:31;2.95;;;0.80;;
74753;SDS011;63271;53.340;-6.260;2023-03-15T13:51:04;7.25;;;3.13;;
74753;SDS011;63271;53.340;-6.260;2023-03-15T13:53:38;4.18;;;1.10;;
74753;SDS011;63271;53.340;-6.260;2023-03-15T13:56:08;2.45;;;0.85;;
74753;SDS011;63271;53.340;-6.260;2023-03-15T13:58:35;5.85;;;2.42;;
74753;SDS011;63271;53.340;-6.260;2023-03-15T14:01:04;5.13;;;1.17;;
74753;SDS011;63271;53.340;-6.260;2023-03-15T14:03:30;5.50;;;1.02;;
74753;SDS011;63271;53.340;-6.260;2023-03-15T14:05:58;3.78;;;0.80;;
74753;SDS011;63271;53.340;-6.260;2023-03-15T14:08:28;3.50;;;1.02;;
74753;SDS011;63271;53.340;-6.260;2023-03-15T14:10:57;10.52;;;3.38;;
74753;SDS011;63271;53.340;-6.260;2023-03-15T14:13:28;13.50;;;1.40;;
74753;SDS011;63271;53.340;-6.260;2023-03-15T14:16:00;3.55;;;1.10;;
74753;SDS011;63271;53.340;-6.260;2023-03-15T14:18:30;5.53;;;1.77;;
74753;SDS011;63271;53.340;-6.260;2023-03-15T14:23:29;4.43;;;1.35;;
74753;SDS011;63271;53.340;-6.260;2023-03-15T14:26:28;10.77;;;1.58;;
74753;SDS011;63271;53.340;-6.260;2023-03-15T14:29:03;4.90;;;1.33;;
74753;SDS011;63271;53.340;-6.260;2023-03-15T14:31:38;4.82;;;1.50;;
74753;SDS011;63271;53.340;-6.260;2023-03-15T14:34:23;4.90;;;1.65;;
74753;SDS011;63271;53.340;-6.260;2023-03-15T14:36:57;12.30;;;2.47;;
74753;SDS011;63271;53.340;-6.260;2023-03-15T14:39:27;3.28;;;1.42;;
74753;SDS011;63271;53.340;-6.260;2023-03-15T14:41:59;4.45;;;1.60;;
74753;SDS011;63271;53.340;-6.260;2023-03-15T14:44:27;5.80;;;1.63;;
74753;SDS011;63271;53.340;-6.260;2023-03-15T14:46:55;10.52;;;1.55;;
74753;SDS011;63271;53.340;-6.260;2023-03-15T14:49:24;6.57;;;1.88;;
74753;SDS011;63271;53.340;-6.260;2023-03-15T14:51:57;4.20;;;1.90;;
74753;SDS011;63271;53.340;-6.260;2023-03-15T14:54:25;4.15;;;1.05;;
74753;SDS011;63271;53.340;-6.260;2023-03-15T14:56:50;4.35;;;1.15;;
74753;SDS011;63271;53.340;-6.260;2023-03-15T14:59:16;19.90;;;7.10;;
74753;SDS011;63271;53.340;-6.260;2023-03-15T15:01:43;9.60;;;3.65;;
74753;SDS011;63271;53.340;-6.260;2023-03-15T15:04:12;1.08;;;0.82;;
74753;SDS011;63271;53.340;-6.260;2023-03-15T15:06:41;4.07;;;0.98;;
74753;SDS011;63271;53.340;-6.260;2023-03-15T15:09:15;2.65;;;1.05;;
74753;SDS011;63271;53.340;-6.260;2023-03-15T15:11:44;2.80;;;0.70;;
74753;SDS011;63271;53.340;-6.260;2023-03-15T15:14:11;0.73;;;0.45;;
74753;SDS011;63271;53.340;-6.260;2023-03-15T15:16:37;2.90;;;0.47;;
74753;SDS011;63271;53.340;-6.260;2023-03-15T15:19:04;1.00;;;0.52;;
74753;SDS011;63271;53.340;-6.260;2023-03-15T15:21:30;3.80;;;0.70;;
74753;SDS011;63271;53.340;-6.260;2023-03-15T15:23:58;3.50;;;0.77;;
74753;SDS011;63271;53.340;-6.260;2023-03-15T15:26:26;3.33;;;0.82;;
74753;SDS011;63271;53.340;-6.260;2023-03-15T15:28:56;2.08;;;0.65;;
74753;SDS011;63271;53.340;-6.260;2023-03-15T15:31:22;2.08;;;0.60;;
74753;SDS011;63271;53.340;-6.260;2023-03-15T15:33:49;7.75;;;1.27;;
74753;SDS011;63271;53.340;-6.260;2023-03-15T15:36:28;7.55;;;3.10;;
74753;SDS011;63271;53.340;-6.260;2023-03-15T15:38:55;5.60;;;1.50;;
74753;SDS011;63271;53.340;-6.260;2023-03-15T15:41:24;3.95;;;1.10;;
74753;SDS011;63271;53.340;-6.260;2023-03-15T15:43:52;6.50;;;1.30;;
74753;SDS011;63271;53.340;-6.260;2023-03-15T15:46:17;1.98;;;0.90;;
74753;SDS011;63271;53.340;-6.260;2023-03-15T15:48:43;6.88;;;1.30;;
74753;SDS011;63271;53.340;-6.260;2023-03-15T15:51:19;7.15;;;2.25;;
74753;SDS011;63271;53.340;-6.260;2023-03-15T15:53:56;1.90;;;0.68;;
74753;SDS011;63271;53.340;-6.260;2023-03-15T15:56:27;6.03;;;2.05;;
74753;SDS011;63271;53.340;-6.260;2023-03-15T15:58:56;4.00;;;1.02;;
74753;SDS011;63271;53.340;-6.260;2023-03-15T16:01:21;3.08;;;0.90;;
74753;SDS011;63271;53.340;-6.260;2023-03-15T16:03:49;6.75;;;1.20;;
74753;SDS011;63271;53.340;-6.260;2023-03-15T16:06:19;3.03;;;1.48;;
74753;SDS011;63271;53.340;-6.260;2023-03-15T16:08:45;6.32;;;0.77;;
74753;SDS011;63271;53.340;-6.260;2023-03-15T16:11:12;5.18;;;1.25;;
74753;SDS011;63271;53.340;-6.260;2023-03-15T16:13:39;8.27;;;1.80;;
74753;SDS011;63271;53.340;-6.260;2023-03-15T16:16:05;6.82;;;1.52;;
74753;SDS011;63271;53.340;-6.260;2023-03-15T16:18:30;3.97;;;1.50;;
74753;SDS011;63271;53.340;-6.260;2023-03-15T16:20:58;4.97;;;1.35;;
74753;SDS011;63271;53.340;-6.260;2023-03-15T16:23:23;4.93;;;1.70;;
74753;SDS011;63271;53.340;-6.260;2023-03-15T16:25:50;11.15;;;2.28;;
74753;SDS011;63271;53.340;-6.260;2023-03-15T16:28:19;3.45;;;1.73;;
74753;SDS011;63271;53.340;-6.260;2023-03-15T16:30:48;11.80;;;1.70;;
74753;SDS011;63271;53.340;-6.260;2023-03-15T16:33:17;5.32;;;1.90;;
74753;SDS011;63271;53.340;-6.260;2023-03-15T16:35:44;15.13;;;1.80;;
74753;SDS011;63271;53.340;-6.260;2023-03-15T16:38:19;11.70;;;2.03;;
74753;SDS011;63271;53.340;-6.260;2023-03-15T16:40:49;6.03;;;2.03;;
74753;SDS011;63271;53.340;-6.260;2023-03-15T16:43:16;8.00;;;1.88;;
74753;SDS011;63271;53.340;-6.260;2023-03-15T16:45:42;11.40;;;2.75;;
74753;SDS011;63271;53.340;-6.260;2023-03-15T16:48:09;8.90;;;3.65;;
74753;SDS011;63271;53.340;-6.260;2023-03-15T16:50:36;5.70;;;2.42;;
74753;SDS011;63271;53.340;-6.260;2023-03-15T16:53:03;6.65;;;2.20;;
74753;SDS011;63271;53.340;-6.260;2023-03-15T16:55:30;7.88;;;2.38;;
74753;SDS011;63271;53.340;-6.260;2023-03-15T16:58:03;8.00;;;2.80;;
74753;SDS011;63271;53.340;-6.260;2023-03-15T17:00:37;8.65;;;3.95;;
74753;SDS011;63271;53.340;-6.260;2023-03-15T17:03:03;8.52;;;3.33;;
74753;SDS011;63271;53.340;-6.260;2023-03-15T17:05:34;13.90;;;3.50;;
74753;SDS011;63271;53.340;-6.260;2023-03-15T17:07:59;9.10;;;2.80;;
74753;SDS011;63271;53.340;-6.260;2023-03-15T17:10:26;13.93;;;2.92;;
74753;SDS011;63271;53.340;-6.260;2023-03-15T17:12:53;9.50;;;4.32;;
74753;SDS011;63271;53.340;-6.260;2023-03-15T17:15:21;6.45;;;2.20;;
74753;SDS011;63271;53.340;-6.260;2023-03-15T17:17:49;12.50;;;4.28;;
74753;SDS011;63271;53.340;-6.260;2023-03-15T17:20:15;12.38;;;3.17;;
74753;SDS011;63271;53.340;-6.260;2023-03-15T17:22:46;8.77;;;2.60;;
74753;SDS011;63271;53.340;-6.260;2023-03-15T17:25:13;18.13;;;3.90;;
74753;SDS011;63271;53.340;-6.260;2023-03-15T17:27:40;22.73;;;5.32;;
74753;SDS011;63271;53.340;-6.260;2023-03-15T17:30:12;19.42;;;4.00;;
74753;SDS011;63271;53.340;-6.260;2023-03-15T17:32:44;20.17;;;4.22;;
74753;SDS011;63271;53.340;-6.260;2023-03-15T17:35:10;13.05;;;4.43;;
74753;SDS011;63271;53.340;-6.260;2023-03-15T17:37:38;13.65;;;4.43;;
74753;SDS011;63271;53.340;-6.260;2023-03-15T17:40:05;19.10;;;4.47;;
74753;SDS011;63271;53.340;-6.260;2023-03-15T17:42:36;21.55;;;4.70;;
74753;SDS011;63271;53.340;-6.260;2023-03-15T17:45:17;20.10;;;4.28;;
74753;SDS011;63271;53.340;-6.260;2023-03-15T17:47:47;16.55;;;4.57;;
74753;SDS011;63271;53.340;-6.260;2023-03-15T17:50:13;23.92;;;5.30;;
74753;SDS011;63271;53.340;-6.260;2023-03-15T17:52:39;20.02;;;4.35;;
74753;SDS011;63271;53.340;-6.260;2023-03-15T17:55:05;23.73;;;4.95;;
74753;SDS011;63271;53.340;-6.260;2023-03-15T17:57:33;23.10;;;4.70;;
74753;SDS011;63271;53.340;-6.260;2023-03-15T17:59:59;19.25;;;4.03;;
74753;SDS011;63271;53.340;-6.260;2023-03-15T18:02:27;17.25;;;4.50;;
74753;SDS011;63271;53.340;-6.260;2023-03-15T18:04:53;16.50;;;4.00;;
74753;SDS011;63271;53.340;-6.260;2023-03-15T18:07:18;21.52;;;5.15;;
74753;SDS011;63271;53.340;-6.260;2023-03-15T18:09:47;16.98;;;3.90;;
74753;SDS011;63271;53.340;-6.260;2023-03-15T18:12:15;11.65;;;3.53;;
74753;SDS011;63271;53.340;-6.260;2023-03-15T18:14:41;12.27;;;3.80;;
74753;SDS011;63271;53.340;-6.260;2023-03-15T18:17:08;18.58;;;4.00;;
74753;SDS011;63271;53.340;-6.260;2023-03-15T18:19:34;16.50;;;3.90;;
74753;SDS011;63271;53.340;-6.260;2023-03-15T18:22:01;18.77;;;4.43;;
74753;SDS011;63271;53.340;-6.260;2023-03-15T18:24:27;18.52;;;4.90;;
74753;SDS011;63271;53.340;-6.260;2023-03-15T18:29:23;14.57;;;4.63;;
74753;SDS011;63271;53.340;-6.260;2023-03-15T18:31:48;20.77;;;5.05;;
74753;SDS011;63271;53.340;-6.260;2023-03-15T18:34:14;14.35;;;5.00;;
74753;SDS011;63271;53.340;-6.260;2023-03-15T18:36:48;11.35;;;4.03;;
74753;SDS011;63271;53.340;-6.260;2023-03-15T18:39:13;11.88;;;4.38;;
74753;SDS011;63271;53.340;-6.260;2023-03-15T18:41:39;13.90;;;5.05;;
74753;SDS011;63271;53.340;-6.260;2023-03-15T18:44:04;14.07;;;4.10;;
74753;SDS011;63271;53.340;-6.260;2023-03-15T18:46:30;11.50;;;3.55;;
74753;SDS011;63271;53.340;-6.260;2023-03-15T18:48:56;15.05;;;3.97;;
74753;SDS011;63271;53.340;-6.260;2023-03-15T18:51:23;10.45;;;4.55;;
74753;SDS011;63271;53.340;-6.260;2023-03-15T18:53:52;25.80;;;8.43;;
74753;SDS011;63271;53.340;-6.260;2023-03-15T18:56:27;8.65;;;3.20;;
74753;SDS011;63271;53.340;-6.260;2023-03-15T18:59:00;11.30;;;3.08;;
74753;SDS011;63271;53.340;-6.260;2023-03-15T19:01:28;16.83;;;4.32;;
74753;SDS011;63271;53.340;-6.260;2023-03-15T19:03:58;7.85;;;3.00;;
74753;SDS011;63271;53.340;-6.260;2023-03-15T19:06:23;9.15;;;3.25;;
74753;SDS011;63271;53.340;-6.260;2023-03-15T19:08:51;11.38;;;4.00;;
74753;SDS011;63271;53.340;-6.260;2023-03-15T19:11:20;13.52;;;3.75;;
74753;SDS011;63271;53.340;-6.260;2023-03-15T19:13:47;15.10;;;5.25;;
74753;SDS011;63271;53.340;-6.260;2023-03-15T19:16:18;9.27;;;4.00;;
74753;SDS011;63271;53.340;-6.260;2023-03-15T19:18:47;15.43;;;4.80;;
74753;SDS011;63271;53.340;-6.260;2023-03-15T19:21:17;11.20;;;4.32;;
74753;SDS011;63271;53.340;-6.260;2023-03-15T19:23:43;11.68;;;4.82;;
74753;SDS011;63271;53.340;-6.260;2023-03-15T19:26:11;16.25;;;5.60;;
74753;SDS011;63271;53.340;-6.260;2023-03-15T19:28:38;10.05;;;3.60;;
74753;SDS011;63271;53.340;-6.260;2023-03-15T19:31:04;12.23;;;5.28;;
74753;SDS011;63271;53.340;-6.260;2023-03-15T19:33:29;14.30;;;4.97;;
74753;SDS011;63271;53.340;-6.260;2023-03-15T19:35:55;12.73;;;4.60;;
74753;SDS011;63271;53.340;-6.260;2023-03-15T19:38:20;14.85;;;5.20;;
74753;SDS011;63271;53.340;-6.260;2023-03-15T19:40:45;18.65;;;6.30;;
74753;SDS011;63271;53.340;-6.260;2023-03-15T19:43:11;18.90;;;6.05;;
74753;SDS011;63271;53.340;-6.260;2023-03-15T19:45:39;20.48;;;5.55;;
74753;SDS011;63271;53.340;-6.260;2023-03-15T19:48:04;15.02;;;5.15;;
74753;SDS011;63271;53.340;-6.260;2023-03-15T19:50:30;15.45;;;4.53;;
74753;SDS011;63271;53.340;-6.260;2023-03-15T19:52:57;11.65;;;4.10;;
74753;SDS011;63271;53.340;-6.260;2023-03-15T19:55:26;7.75;;;3.67;;
74753;SDS011;63271;53.340;-6.260;2023-03-15T19:57:51;7.63;;;3.17;;
74753;SDS011;63271;53.340;-6.260;2023-03-15T20:00:17;12.40;;;3.92;;
